sensor_id;sensor_type;location;lat;lon;timestamp;pressure;altitude;pressure_sealevel;temperature;humidity
86279;BME280;76943;49.872;8.658;2024-03-02T00:00:07;98758.78;;;18.25;47.16
86279;BME280;76943;49.872;8.658;2024-03-02T00:02:41;98751.53;;;18.24;47.31
86279;BME280;76943;49.872;8.658;2024-03-02T00:05:07;98753.53;;;18.23;47.02
86279;BME280;76943;49.872;8.658;2024-03-02T00:07:32;98753.91;;;18.22;47.19
86279;BME280;76943;49.872;8.658;2024-03-02T00:09:57;98742.69;;;18.22;47.01
86279;BME280;76943;49.872;8.658;2024-03-02T00:12:22;98739.88;;;18.22;47.50
86279;BME280;76943;49.872;8.658;2024-03-02T00:14:48;98739.06;;;18.21;47.32
86279;BME280;76943;49.872;8.658;2024-03-02T00:17:17;98737.44;;;18.20;47.13
86279;BME280;76943;49.872;8.658;2024-03-02T00:19:44;98740.25;;;18.20;47.20
86279;BME280;76943;49.872;8.658;2024-03-02T00:22:09;98739.03;;;18.18;47.38
86279;BME280;76943;49.872;8.658;2024-03-02T00:24:34;98740.22;;;18.17;47.29
86279;BME280;76943;49.872;8.658;2024-03-02T00:27:01;98730.19;;;18.16;46.94
86279;BME280;76943;49.872;8.658;2024-03-02T00:29:28;98729.00;;;18.17;47.35
86279;BME280;76943;49.872;8.658;2024-03-02T00:31:54;98726.56;;;18.15;46.97
86279;BME280;76943;49.872;8.658;2024-03-02T00:34:20;98731.00;;;18.16;47.44
86279;BME280;76943;49.872;8.658;2024-03-02T00:36:45;98724.16;;;18.14;47.19
86279;BME280;76943;49.872;8.658;2024-03-02T00:39:11;98721.34;;;18.14;47.16
86279;BME280;76943;49.872;8.658;2024-03-02T00:41:38;98726.94;;;18.14;47.06
86279;BME280;76943;49.872;8.658;2024-03-02T00:44:06;98728.56;;;18.15;47.37
86279;BME280;76943;49.872;8.658;2024-03-02T00:46:35;98729.75;;;18.14;47.13
86279;BME280;76943;49.872;8.658;2024-03-02T00:49:02;98722.53;;;18.13;47.42
86279;BME280;76943;49.872;8.658;2024-03-02T00:51:28;98729.31;;;18.12;47.44
86279;BME280;76943;49.872;8.658;2024-03-02T00:53:54;98728.50;;;18.11;47.61
86279;BME280;76943;49.872;8.658;2024-03-02T00:56:23;98722.91;;;18.11;47.08
86279;BME280;76943;49.872;8.658;2024-03-02T00:58:48;98726.09;;;18.10;47.24
86279;BME280;76943;49.872;8.658;2024-03-02T01:01:13;98729.69;;;18.10;47.22
86279;BME280;76943;49.872;8.658;2024-03-02T01:03:38;98730.88;;;18.09;46.89
86279;BME280;76943;49.872;8.658;2024-03-02T01:06:04;98727.28;;;18.09;47.47
86279;BME280;76943;49.872;8.658;2024-03-02T01:08:29;98732.06;;;18.08;47.48
86279;BME280;76943;49.872;8.658;2024-03-02T01:10:54;98732.06;;;18.08;47.16
86279;BME280;76943;49.872;8.658;2024-03-02T01:13:20;98736.44;;;18.06;47.28
86279;BME280;76943;49.872;8.658;2024-03-02T01:15:45;98737.25;;;18.06;47.37
86279;BME280;76943;49.872;8.658;2024-03-02T01:18:10;98737.25;;;18.06;47.23
86279;BME280;76943;49.872;8.658;2024-03-02T01:20:36;98737.63;;;18.05;47.44
86279;BME280;76943;49.872;8.658;2024-03-02T01:23:01;98736.81;;;18.04;46.89
86279;BME280;76943;49.872;8.658;2024-03-02T01:25:26;98738.81;;;18.04;46.98
86279;BME280;76943;49.872;8.658;2024-03-02T01:27:51;98747.22;;;18.04;47.46
86279;BME280;76943;49.872;8.658;2024-03-02T01:30:16;98744.03;;;18.05;47.10
86279;BME280;76943;49.872;8.658;2024-03-02T01:32:41;98745.59;;;18.03;47.51
86279;BME280;76943;49.872;8.658;2024-03-02T01:35:07;98743.97;;;18.02;47.45
86279;BME280;76943;49.872;8.658;2024-03-02T01:37:32;98745.16;;;18.01;47.13
86279;BME280;76943;49.872;8.658;2024-03-02T01:39:57;98740.38;;;18.01;47.43
86279;BME280;76943;49.872;8.658;2024-03-02T01:42:23;98749.97;;;18.00;47.45
86279;BME280;76943;49.872;8.658;2024-03-02T01:44:48;98745.16;;;18.01;47.53
86279;BME280;76943;49.872;8.658;2024-03-02T01:47:13;98732.31;;;18.00;47.20
86279;BME280;76943;49.872;8.658;2024-03-02T01:49:38;98735.88;;;17.97;47.62
86279;BME280;76943;49.872;8.658;2024-03-02T01:52:05;98732.69;;;17.98;47.34
86279;BME280;76943;49.872;8.658;2024-03-02T01:54:31;98727.09;;;17.98;47.29
86279;BME280;76943;49.872;8.658;2024-03-02T01:56:56;98726.66;;;17.96;47.44
86279;BME280;76943;49.872;8.658;2024-03-02T01:59:21;98711.00;;;17.95;47.07
86279;BME280;76943;49.872;8.658;2024-03-02T02:01:46;98711.81;;;17.96;47.46
86279;BME280;76943;49.872;8.658;2024-03-02T02:04:11;98702.59;;;17.95;47.61
86279;BME280;76943;49.872;8.658;2024-03-02T02:06:36;98696.97;;;17.95;47.30
86279;BME280;76943;49.872;8.658;2024-03-02T02:09:01;98698.97;;;17.95;47.59
86279;BME280;76943;49.872;8.658;2024-03-02T02:11:27;98684.97;;;17.95;47.32
86279;BME280;76943;49.872;8.658;2024-03-02T02:13:52;98688.56;;;17.95;47.37
86279;BME280;76943;49.872;8.658;2024-03-02T02:16:19;98683.34;;;17.94;47.27
86279;BME280;76943;49.872;8.658;2024-03-02T02:18:44;98689.31;;;17.92;47.31
86279;BME280;76943;49.872;8.658;2024-03-02T02:21:09;98688.50;;;17.92;47.18
86279;BME280;76943;49.872;8.658;2024-03-02T02:23:35;98678.09;;;17.92;47.31
86279;BME280;76943;49.872;8.658;2024-03-02T02:26:00;98683.72;;;17.92;47.59
86279;BME280;76943;49.872;8.658;2024-03-02T02:28:25;98682.09;;;17.91;47.42
86279;BME280;76943;49.872;8.658;2024-03-02T02:30:50;98684.91;;;17.91;47.20
86279;BME280;76943;49.872;8.658;2024-03-02T02:33:16;98682.09;;;17.91;47.53
86279;BME280;76943;49.872;8.658;2024-03-02T02:35:41;98683.31;;;17.90;47.48
86279;BME280;76943;49.872;8.658;2024-03-02T02:38:06;98684.50;;;17.89;47.52
86279;BME280;76943;49.872;8.658;2024-03-02T02:40:31;98678.06;;;17.88;47.56
86279;BME280;76943;49.872;8.658;2024-03-02T02:42:57;98682.50;;;17.90;47.30
86279;BME280;76943;49.872;8.658;2024-03-02T02:45:22;98678.06;;;17.88;47.44
86279;BME280;76943;49.872;8.658;2024-03-02T02:47:47;98670.84;;;17.87;47.55
86279;BME280;76943;49.872;8.658;2024-03-02T02:50:12;98676.44;;;17.87;47.62
86279;BME280;76943;49.872;8.658;2024-03-02T02:52:38;98668.03;;;17.87;47.74
86279;BME280;76943;49.872;8.658;2024-03-02T02:55:05;98674.03;;;17.86;47.72
86279;BME280;76943;49.872;8.658;2024-03-02T02:57:34;98666.41;;;17.86;47.55
86279;BME280;76943;49.872;8.658;2024-03-02T03:00:06;98669.59;;;17.85;47.56
86279;BME280;76943;49.872;8.658;2024-03-02T03:02:35;98656.38;;;17.85;47.57
86279;BME280;76943;49.872;8.658;2024-03-02T03:05:00;98662.81;;;17.86;47.32
86279;BME280;76943;49.872;8.658;2024-03-02T03:07:26;98665.63;;;17.86;47.55
86279;BME280;76943;49.872;8.658;2024-03-02T03:09:51;98657.56;;;17.84;47.45
86279;BME280;76943;49.872;8.658;2024-03-02T03:12:16;98663.56;;;17.83;47.22
86279;BME280;76943;49.872;8.658;2024-03-02T03:14:41;98657.50;;;17.81;47.54
86279;BME280;76943;49.872;8.658;2024-03-02T03:17:06;98658.75;;;17.83;47.24
86279;BME280;76943;49.872;8.658;2024-03-02T03:19:33;98661.56;;;17.83;47.56
86279;BME280;76943;49.872;8.658;2024-03-02T03:21:58;98665.94;;;17.81;47.23
86279;BME280;76943;49.872;8.658;2024-03-02T03:24:23;98653.53;;;17.82;47.40
86279;BME280;76943;49.872;8.658;2024-03-02T03:26:48;98651.09;;;17.80;47.61
86279;BME280;76943;49.872;8.658;2024-03-02T03:29:13;98648.28;;;17.80;47.71
86279;BME280;76943;49.872;8.658;2024-03-02T03:31:39;98643.88;;;17.79;47.01
86279;BME280;76943;49.872;8.658;2024-03-02T03:34:04;98643.88;;;17.79;47.12
86279;BME280;76943;49.872;8.658;2024-03-02T03:36:29;98646.66;;;17.79;47.41
86279;BME280;76943;49.872;8.658;2024-03-02T03:38:54;98652.28;;;17.79;47.55
86279;BME280;76943;49.872;8.658;2024-03-02T03:41:19;98562.97;;;17.29;47.24
86279;BME280;76943;49.872;8.658;2024-03-02T03:43:44;98647.84;;;17.78;47.56
86279;BME280;76943;49.872;8.658;2024-03-02T03:46:09;98639.38;;;17.75;47.11
86279;BME280;76943;49.872;8.658;2024-03-02T03:48:35;98647.41;;;17.76;47.17
86279;BME280;76943;49.872;8.658;2024-03-02T03:51:00;98641.81;;;17.76;47.18
86279;BME280;76943;49.872;8.658;2024-03-02T03:53:25;98649.03;;;17.77;47.18
86279;BME280;76943;49.872;8.658;2024-03-02T03:55:50;98656.66;;;17.77;47.14
86279;BME280;76943;49.872;8.658;2024-03-02T03:58:15;98652.22;;;17.76;47.35
86279;BME280;76943;49.872;8.658;2024-03-02T04:00:42;98648.59;;;17.75;47.35
86279;BME280;76943;49.872;8.658;2024-03-02T04:03:07;98655.84;;;17.76;47.21
86279;BME280;76943;49.872;8.658;2024-03-02T04:05:32;98654.22;;;17.75;47.59
86279;BME280;76943;49.872;8.658;2024-03-02T04:07:57;98659.38;;;17.73;47.21
86279;BME280;76943;49.872;8.658;2024-03-02T04:10:22;98670.59;;;17.73;47.13
86279;BME280;76943;49.872;8.658;2024-03-02T04:12:49;98651.34;;;17.72;47.46
86279;BME280;76943;49.872;8.658;2024-03-02T04:15:15;98663.38;;;17.72;47.53
86279;BME280;76943;49.872;8.658;2024-03-02T04:17:40;98663.38;;;17.72;47.43
86279;BME280;76943;49.872;8.658;2024-03-02T04:20:05;98662.94;;;17.70;47.46
86279;BME280;76943;49.872;8.658;2024-03-02T04:22:32;98656.97;;;17.72;47.27
86279;BME280;76943;49.872;8.658;2024-03-02T04:24:57;98654.53;;;17.70;47.32
86279;BME280;76943;49.872;8.658;2024-03-02T04:27:22;98654.97;;;17.72;47.47
86279;BME280;76943;49.872;8.658;2024-03-02T04:29:48;98655.34;;;17.71;47.72
86279;BME280;76943;49.872;8.658;2024-03-02T04:32:13;98660.94;;;17.71;47.24
86279;BME280;76943;49.872;8.658;2024-03-02T04:34:38;98654.53;;;17.70;47.72
86279;BME280;76943;49.872;8.658;2024-03-02T04:37:03;98648.91;;;17.70;47.15
86279;BME280;76943;49.872;8.658;2024-03-02T04:39:28;98659.31;;;17.70;47.51
86279;BME280;76943;49.872;8.658;2024-03-02T04:41:53;98660.13;;;17.70;47.57
86279;BME280;76943;49.872;8.658;2024-03-02T04:44:18;98658.50;;;17.69;47.29
86279;BME280;76943;49.872;8.658;2024-03-02T04:46:44;98655.34;;;17.71;47.60
86279;BME280;76943;49.872;8.658;2024-03-02T04:49:09;98664.13;;;17.69;47.71
86279;BME280;76943;49.872;8.658;2024-03-02T04:51:34;98657.72;;;17.69;47.64
86279;BME280;76943;49.872;8.658;2024-03-02T04:53:59;98665.75;;;17.70;47.31
86279;BME280;76943;49.872;8.658;2024-03-02T04:56:25;98661.31;;;17.69;47.64
86279;BME280;76943;49.872;8.658;2024-03-02T04:59:08;98670.09;;;17.68;47.61
86279;BME280;76943;49.872;8.658;2024-03-02T05:01:33;98676.91;;;17.67;47.63
86279;BME280;76943;49.872;8.658;2024-03-02T05:03:58;98682.50;;;17.67;47.72
86279;BME280;76943;49.872;8.658;2024-03-02T05:06:24;98677.72;;;17.67;47.10
86279;BME280;76943;49.872;8.658;2024-03-02T05:08:49;98670.09;;;17.68;47.11
86279;BME280;76943;49.872;8.658;2024-03-02T05:11:14;98682.50;;;17.67;47.09
86279;BME280;76943;49.872;8.658;2024-03-02T05:14:14;98682.50;;;17.67;47.31
86279;BME280;76943;49.872;8.658;2024-03-02T05:16:39;98679.69;;;17.67;47.36
86279;BME280;76943;49.872;8.658;2024-03-02T05:19:06;98681.69;;;17.66;47.24
86279;BME280;76943;49.872;8.658;2024-03-02T05:21:31;98691.28;;;17.65;47.08
86279;BME280;76943;49.872;8.658;2024-03-02T05:23:57;98693.28;;;17.65;47.24
86279;BME280;76943;49.872;8.658;2024-03-02T05:26:22;98702.50;;;17.65;47.22
86279;BME280;76943;49.872;8.658;2024-03-02T05:28:47;98699.22;;;17.63;47.25
86279;BME280;76943;49.872;8.658;2024-03-02T05:31:14;98702.03;;;17.63;47.77
86279;BME280;76943;49.872;8.658;2024-03-02T05:33:40;98716.03;;;17.63;47.66
86279;BME280;76943;49.872;8.658;2024-03-02T05:36:05;98715.25;;;17.63;47.58
86279;BME280;76943;49.872;8.658;2024-03-02T05:38:31;98719.22;;;17.62;47.46
86279;BME280;76943;49.872;8.658;2024-03-02T05:40:56;98716.84;;;17.64;47.22
86279;BME280;76943;49.872;8.658;2024-03-02T05:43:21;98716.41;;;17.62;47.67
86279;BME280;76943;49.872;8.658;2024-03-02T05:45:46;98715.66;;;17.61;47.50
86279;BME280;76943;49.872;8.658;2024-03-02T05:48:11;98721.25;;;17.61;47.27
86279;BME280;76943;49.872;8.658;2024-03-02T05:50:36;98724.06;;;17.61;47.27
86279;BME280;76943;49.872;8.658;2024-03-02T05:53:01;98726.03;;;17.61;46.97
86279;BME280;76943;49.872;8.658;2024-03-02T05:55:27;98725.22;;;17.60;47.49
86279;BME280;76943;49.872;8.658;2024-03-02T05:57:52;98725.22;;;17.60;47.24
86279;BME280;76943;49.872;8.658;2024-03-02T06:00:23;98722.81;;;17.59;47.41
86279;BME280;76943;49.872;8.658;2024-03-02T06:02:48;98739.25;;;17.60;47.52
86279;BME280;76943;49.872;8.658;2024-03-02T06:05:14;98730.03;;;17.60;47.32
86279;BME280;76943;49.872;8.658;2024-03-02T06:07:40;98730.84;;;17.60;47.40
86279;BME280;76943;49.872;8.658;2024-03-02T06:10:05;98736.81;;;17.59;47.45
86279;BME280;76943;49.872;8.658;2024-03-02T06:12:32;98736.00;;;17.58;47.37
86279;BME280;76943;49.872;8.658;2024-03-02T06:14:57;98734.38;;;17.57;47.15
86279;BME280;76943;49.872;8.658;2024-03-02T06:17:22;98731.59;;;17.57;47.86
86279;BME280;76943;49.872;8.658;2024-03-02T06:19:47;98739.63;;;17.59;47.69
86279;BME280;76943;49.872;8.658;2024-03-02T06:22:12;98736.00;;;17.58;47.57
86279;BME280;76943;49.872;8.658;2024-03-02T06:24:38;98740.00;;;17.57;47.25
86279;BME280;76943;49.872;8.658;2024-03-02T06:27:03;98738.81;;;17.58;47.19
86279;BME280;76943;49.872;8.658;2024-03-02T06:29:29;98747.22;;;17.58;47.12
86279;BME280;76943;49.872;8.658;2024-03-02T06:31:54;98752.38;;;17.56;47.56
86279;BME280;76943;49.872;8.658;2024-03-02T06:34:19;98759.63;;;17.57;47.32
86279;BME280;76943;49.872;8.658;2024-03-02T06:36:44;98767.28;;;17.60;47.47
86279;BME280;76943;49.872;8.658;2024-03-02T06:39:09;98771.47;;;17.70;47.51
86279;BME280;76943;49.872;8.658;2024-03-02T06:41:35;98761.72;;;17.83;47.08
86279;BME280;76943;49.872;8.658;2024-03-02T06:44:00;98757.56;;;18.00;47.00
86279;BME280;76943;49.872;8.658;2024-03-02T06:46:25;98746.53;;;18.10;46.74
86279;BME280;76943;49.872;8.658;2024-03-02T06:48:50;98752.28;;;18.21;46.90
86279;BME280;76943;49.872;8.658;2024-03-02T06:51:16;98746.00;;;18.28;46.49
86279;BME280;76943;49.872;8.658;2024-03-02T06:53:41;98742.06;;;18.32;46.91
86279;BME280;76943;49.872;8.658;2024-03-02T06:56:06;98753.72;;;18.34;46.41
86279;BME280;76943;49.872;8.658;2024-03-02T06:58:32;98746.91;;;18.35;46.71
86279;BME280;76943;49.872;8.658;2024-03-02T07:00:57;98752.16;;;18.37;47.04
86279;BME280;76943;49.872;8.658;2024-03-02T07:03:22;98759.38;;;18.38;46.54
86279;BME280;76943;49.872;8.658;2024-03-02T07:05:47;98760.56;;;18.37;46.98
86279;BME280;76943;49.872;8.658;2024-03-02T07:08:13;98756.56;;;18.38;46.76
86279;BME280;76943;49.872;8.658;2024-03-02T07:10:38;98764.19;;;18.37;46.74
86279;BME280;76943;49.872;8.658;2024-03-02T07:13:03;98760.56;;;18.37;46.70
86279;BME280;76943;49.872;8.658;2024-03-02T07:15:28;98761.38;;;18.37;46.69
86279;BME280;76943;49.872;8.658;2024-03-02T07:18:08;98754.16;;;18.36;46.73
86279;BME280;76943;49.872;8.658;2024-03-02T07:20:33;98762.19;;;18.38;46.69
86279;BME280;76943;49.872;8.658;2024-03-02T07:22:58;98757.06;;;18.43;46.74
86279;BME280;76943;49.872;8.658;2024-03-02T07:25:23;98769.25;;;18.54;46.59
86279;BME280;76943;49.872;8.658;2024-03-02T07:27:48;98766.13;;;18.60;46.37
86279;BME280;76943;49.872;8.658;2024-03-02T07:30:13;98771.00;;;18.63;46.26
86279;BME280;76943;49.872;8.658;2024-03-02T07:32:39;98775.84;;;18.66;46.35
86279;BME280;76943;49.872;8.658;2024-03-02T07:35:06;98779.47;;;18.66;46.38
86279;BME280;76943;49.872;8.658;2024-03-02T07:37:32;98774.66;;;18.67;46.41
86279;BME280;76943;49.872;8.658;2024-03-02T07:39:57;98779.09;;;18.68;46.57
86279;BME280;76943;49.872;8.658;2024-03-02T07:42:23;98777.47;;;18.67;46.48
86279;BME280;76943;49.872;8.658;2024-03-02T07:44:48;98779.09;;;18.68;46.72
86279;BME280;76943;49.872;8.658;2024-03-02T07:47:13;98784.72;;;18.68;46.82
86279;BME280;76943;49.872;8.658;2024-03-02T07:49:38;98784.72;;;18.68;46.77
86279;BME280;76943;49.872;8.658;2024-03-02T07:52:03;98779.09;;;18.68;46.68
86279;BME280;76943;49.872;8.658;2024-03-02T07:54:28;98787.53;;;18.68;46.73
86279;BME280;76943;49.872;8.658;2024-03-02T07:56:54;98785.09;;;18.66;46.74
86279;BME280;76943;49.872;8.658;2024-03-02T07:59:19;98791.91;;;18.65;46.92
86279;BME280;76943;49.872;8.658;2024-03-02T08:01:45;98791.09;;;18.65;46.99
86279;BME280;76943;49.872;8.658;2024-03-02T08:04:10;98787.47;;;18.64;47.01
86279;BME280;76943;49.872;8.658;2024-03-02T08:06:36;98795.09;;;18.64;46.90
86279;BME280;76943;49.872;8.658;2024-03-02T08:09:01;98798.69;;;18.64;46.91
86279;BME280;76943;49.872;8.658;2024-03-02T08:11:26;98805.56;;;18.67;46.99
86279;BME280;76943;49.872;8.658;2024-03-02T08:13:55;98798.81;;;18.71;47.11
86279;BME280;76943;49.872;8.658;2024-03-02T08:16:21;98803.38;;;18.83;46.72
86279;BME280;76943;49.872;8.658;2024-03-02T08:18:47;98797.44;;;18.88;46.58
86279;BME280;76943;49.872;8.658;2024-03-02T08:21:13;98802.28;;;18.91;46.90
86279;BME280;76943;49.872;8.658;2024-03-02T08:23:38;98798.34;;;18.96;46.79
86279;BME280;76943;49.872;8.658;2024-03-02T08:26:05;98795.53;;;18.96;46.56
86279;BME280;76943;49.872;8.658;2024-03-02T08:28:31;98795.53;;;18.96;46.84
86279;BME280;76943;49.872;8.658;2024-03-02T08:30:56;98799.44;;;18.87;46.58
86279;BME280;76943;49.872;8.658;2024-03-02T08:33:21;98795.47;;;18.92;46.57
86279;BME280;76943;49.872;8.658;2024-03-02T08:35:46;98800.34;;;18.95;46.68
86279;BME280;76943;49.872;8.658;2024-03-02T08:38:12;98798.28;;;18.92;46.63
86279;BME280;76943;49.872;8.658;2024-03-02T08:40:37;98800.66;;;18.90;46.70
86279;BME280;76943;49.872;8.658;2024-03-02T08:43:02;98812.28;;;18.88;46.73
86279;BME280;76943;49.872;8.658;2024-03-02T08:45:28;98808.66;;;18.88;46.88
86279;BME280;76943;49.872;8.658;2024-03-02T08:47:53;98804.22;;;18.87;46.69
86279;BME280;76943;49.872;8.658;2024-03-02T08:50:18;98806.22;;;18.86;46.79
86279;BME280;76943;49.872;8.658;2024-03-02T08:52:44;98803.81;;;18.85;46.80
86279;BME280;76943;49.872;8.658;2024-03-02T08:55:09;98805.81;;;18.84;46.67
86279;BME280;76943;49.872;8.658;2024-03-02T08:57:36;98807.81;;;18.84;46.75
86279;BME280;76943;49.872;8.658;2024-03-02T09:00:01;98806.19;;;18.83;46.69
86279;BME280;76943;49.872;8.658;2024-03-02T09:02:26;98809.00;;;18.83;46.76
86279;BME280;76943;49.872;8.658;2024-03-02T09:04:51;98806.56;;;18.81;46.69
86279;BME280;76943;49.872;8.658;2024-03-02T09:07:16;98810.56;;;18.80;46.88
86279;BME280;76943;49.872;8.658;2024-03-02T09:09:42;98810.94;;;18.79;46.69
86279;BME280;76943;49.872;8.658;2024-03-02T09:12:07;98805.31;;;18.79;46.85
86279;BME280;76943;49.872;8.658;2024-03-02T09:14:32;98806.50;;;18.78;46.95
86279;BME280;76943;49.872;8.658;2024-03-02T09:16:58;98805.31;;;18.79;46.65
86279;BME280;76943;49.872;8.658;2024-03-02T09:19:23;98794.88;;;18.79;46.78
86279;BME280;76943;49.872;8.658;2024-03-02T09:21:48;98802.94;;;18.81;46.59
86279;BME280;76943;49.872;8.658;2024-03-02T09:24:13;98805.31;;;18.79;46.86
86279;BME280;76943;49.872;8.658;2024-03-02T09:26:38;98804.13;;;18.80;46.88
86279;BME280;76943;49.872;8.658;2024-03-02T09:29:03;98800.50;;;18.79;46.83
86279;BME280;76943;49.872;8.658;2024-03-02T09:31:29;98794.47;;;18.77;46.82
86279;BME280;76943;49.872;8.658;2024-03-02T09:33:54;98805.69;;;18.77;46.75
86279;BME280;76943;49.872;8.658;2024-03-02T09:36:19;98801.28;;;18.76;46.68
86279;BME280;76943;49.872;8.658;2024-03-02T09:38:45;98807.28;;;18.75;46.81
86279;BME280;76943;49.872;8.658;2024-03-02T09:41:10;98801.25;;;18.73;46.73
86279;BME280;76943;49.872;8.658;2024-03-02T09:43:35;98805.22;;;18.72;46.80
86279;BME280;76943;49.872;8.658;2024-03-02T09:46:01;98796.81;;;18.72;46.80
86279;BME280;76943;49.872;8.658;2024-03-02T09:48:26;98792.38;;;18.71;46.83
86279;BME280;76943;49.872;8.658;2024-03-02T09:50:51;98799.19;;;18.70;46.94
86279;BME280;76943;49.872;8.658;2024-03-02T09:53:16;98796.75;;;18.68;46.78
86279;BME280;76943;49.872;8.658;2024-03-02T09:55:45;98788.34;;;18.68;46.71
86279;BME280;76943;49.872;8.658;2024-03-02T09:58:11;98788.72;;;18.67;46.78
86279;BME280;76943;49.872;8.658;2024-03-02T10:00:37;98783.47;;;18.65;46.95
86279;BME280;76943;49.872;8.658;2024-03-02T10:03:02;98790.34;;;18.68;46.80
86279;BME280;76943;49.872;8.658;2024-03-02T10:05:27;98776.28;;;18.68;46.75
86279;BME280;76943;49.872;8.658;2024-03-02T10:08:00;98782.72;;;18.68;46.98
86279;BME280;76943;49.872;8.658;2024-03-02T10:10:34;98788.34;;;18.68;46.97
86279;BME280;76943;49.872;8.658;2024-03-02T10:13:03;98781.53;;;18.69;46.72
86279;BME280;76943;49.872;8.658;2024-03-02T10:15:28;98778.72;;;18.69;46.98
86279;BME280;76943;49.872;8.658;2024-03-02T10:17:53;98775.47;;;18.67;46.67
86279;BME280;76943;49.872;8.658;2024-03-02T10:20:22;98772.66;;;18.67;46.97
86279;BME280;76943;49.872;8.658;2024-03-02T10:22:48;98769.88;;;18.67;46.83
86279;BME280;76943;49.872;8.658;2024-03-02T10:25:28;98769.91;;;18.71;46.85
86279;BME280;76943;49.872;8.658;2024-03-02T10:27:53;98764.72;;;18.73;46.68
86279;BME280;76943;49.872;8.658;2024-03-02T10:30:18;98764.72;;;18.73;46.97
86279;BME280;76943;49.872;8.658;2024-03-02T10:32:43;98765.16;;;18.75;46.84
86279;BME280;76943;49.872;8.658;2024-03-02T10:35:09;98759.13;;;18.73;46.99
86279;BME280;76943;49.872;8.658;2024-03-02T10:37:34;98757.94;;;18.74;46.85
86279;BME280;76943;49.872;8.658;2024-03-02T10:40:04;98753.13;;;18.74;46.75
86279;BME280;76943;49.872;8.658;2024-03-02T10:42:29;98749.94;;;18.76;46.77
86279;BME280;76943;49.872;8.658;2024-03-02T10:44:54;98746.31;;;18.75;46.79
86279;BME280;76943;49.872;8.658;2024-03-02T10:47:20;98747.13;;;18.76;46.82
86279;BME280;76943;49.872;8.658;2024-03-02T10:49:47;98731.88;;;18.77;46.81
86279;BME280;76943;49.872;8.658;2024-03-02T10:52:16;98739.09;;;18.78;47.12
86279;BME280;76943;49.872;8.658;2024-03-02T10:54:42;98737.09;;;18.78;46.86
86279;BME280;76943;49.872;8.658;2024-03-02T10:57:08;98744.34;;;18.79;46.68
86279;BME280;76943;49.872;8.658;2024-03-02T10:59:36;98735.91;;;18.79;46.91
86279;BME280;76943;49.872;8.658;2024-03-02T11:02:02;98728.28;;;18.80;46.88
86279;BME280;76943;49.872;8.658;2024-03-02T11:04:29;98721.50;;;18.81;46.90
86279;BME280;76943;49.872;8.658;2024-03-02T11:06:56;98731.53;;;18.82;46.72
86279;BME280;76943;49.872;8.658;2024-03-02T11:09:25;98727.91;;;18.81;46.97
86279;BME280;76943;49.872;8.658;2024-03-02T11:11:54;98732.34;;;18.82;46.75
86279;BME280;76943;49.872;8.658;2024-03-02T11:14:21;98723.53;;;18.84;46.67
86279;BME280;76943;49.872;8.658;2024-03-02T11:16:48;98724.34;;;18.84;46.62
86279;BME280;76943;49.872;8.658;2024-03-02T11:19:14;98722.34;;;18.85;46.79
86279;BME280;76943;49.872;8.658;2024-03-02T11:21:40;98723.97;;;18.86;46.73
86279;BME280;76943;49.872;8.658;2024-03-02T11:26:46;98711.53;;;18.87;46.74
86279;BME280;76943;49.872;8.658;2024-03-02T11:29:21;98721.16;;;18.86;46.70
86279;BME280;76943;49.872;8.658;2024-03-02T11:31:59;98713.53;;;18.86;46.63
86279;BME280;76943;49.872;8.658;2024-03-02T11:34:31;98708.31;;;18.85;46.60
86279;BME280;76943;49.872;8.658;2024-03-02T11:36:56;98711.50;;;18.83;46.93
86279;BME280;76943;49.872;8.658;2024-03-02T11:39:21;98713.88;;;18.81;46.88
86279;BME280;76943;49.872;8.658;2024-03-02T11:41:47;98702.63;;;18.81;46.64
86279;BME280;76943;49.872;8.658;2024-03-02T11:44:12;98703.44;;;18.82;46.85
86279;BME280;76943;49.872;8.658;2024-03-02T11:46:39;98697.44;;;18.83;46.90
86279;BME280;76943;49.872;8.658;2024-03-02T11:49:04;98697.44;;;18.83;46.63
86279;BME280;76943;49.872;8.658;2024-03-02T11:51:29;98697.06;;;18.85;46.61
86279;BME280;76943;49.872;8.658;2024-03-02T11:53:54;98686.63;;;18.85;46.71
86279;BME280;76943;49.872;8.658;2024-03-02T11:56:20;98690.25;;;18.86;46.90
86279;BME280;76943;49.872;8.658;2024-03-02T11:58:46;98685.44;;;18.86;46.85
86279;BME280;76943;49.872;8.658;2024-03-02T12:01:12;98683.44;;;18.87;46.74
86279;BME280;76943;49.872;8.658;2024-03-02T12:03:38;98654.03;;;18.77;46.94
86279;BME280;76943;49.872;8.658;2024-03-02T12:06:03;98673.84;;;18.88;46.75
86279;BME280;76943;49.872;8.658;2024-03-02T12:08:29;98665.84;;;18.90;46.91
86279;BME280;76943;49.872;8.658;2024-03-02T12:10:56;98658.97;;;18.87;45.29
86279;BME280;76943;49.872;8.658;2024-03-02T12:13:22;98661.59;;;18.70;43.77
86279;BME280;76943;49.872;8.658;2024-03-02T12:15:53;98658.25;;;18.61;42.67
86279;BME280;76943;49.872;8.658;2024-03-02T12:18:20;98651.06;;;18.63;42.91
86279;BME280;76943;49.872;8.658;2024-03-02T12:20:46;98643.34;;;18.56;42.61
86279;BME280;76943;49.872;8.658;2024-03-02T12:23:13;98638.59;;;18.61;42.99
86279;BME280;76943;49.872;8.658;2024-03-02T12:25:38;98649.06;;;18.64;44.20
86279;BME280;76943;49.872;8.658;2024-03-02T12:28:04;98643.63;;;18.78;44.58
86279;BME280;76943;49.872;8.658;2024-03-02T12:30:29;98634.47;;;18.84;44.73
86279;BME280;76943;49.872;8.658;2024-03-02T12:32:55;98637.69;;;18.86;45.08
86279;BME280;76943;49.872;8.658;2024-03-02T12:35:20;98637.31;;;18.88;45.51
86279;BME280;76943;49.872;8.658;2024-03-02T12:37:49;98640.56;;;18.90;45.67
86279;BME280;76943;49.872;8.658;2024-03-02T12:40:14;98634.97;;;18.94;45.86
86279;BME280;76943;49.872;8.658;2024-03-02T12:42:40;98629.78;;;18.96;45.97
86279;BME280;76943;49.872;8.658;2024-03-02T12:45:07;98625.78;;;18.97;45.87
86279;BME280;76943;49.872;8.658;2024-03-02T12:47:33;98625.41;;;18.98;45.95
86279;BME280;76943;49.872;8.658;2024-03-02T12:49:58;98625.81;;;19.00;46.08
86279;BME280;76943;49.872;8.658;2024-03-02T12:52:23;98627.44;;;19.01;46.02
86279;BME280;76943;49.872;8.658;2024-03-02T12:54:49;98618.22;;;19.01;46.31